sensor_id;sensor_type;location;lat;lon;timestamp;temperature;humidity
21508;DHT22;10915;54.352;9.074;2023-04-15T00:02:17;7.10;99.90
21508;DHT22;10915;54.352;9.074;2023-04-15T00:04:47;7.10;99.90
21508;DHT22;10915;54.352;9.074;2023-04-15T00:07:13;7.10;99.90
21508;DHT22;10915;54.352;9.074;2023-04-15T00:09:41;7.10;99.90
21508;DHT22;10915;54.352;9.074;2023-04-15T00:12:07;7.10;99.90
21508;DHT22;10915;54.352;9.074;2023-04-15T00:14:33;7.10;99.90
21508;DHT22;10915;54.352;9.074;2023-04-15T00:17:00;7.10;99.90
21508;DHT22;10915;54.352;9.074;2023-04-15T00:19:26;7.10;99.90
21508;DHT22;10915;54.352;9.074;2023-04-15T00:21:51;7.10;99.90
21508;DHT22;10915;54.352;9.074;2023-04-15T00:24:17;7.10;99.90
21508;DHT22;10915;54.352;9.074;2023-04-15T00:26:42;7.20;99.90
21508;DHT22;10915;54.352;9.074;2023-04-15T00:29:08;7.20;99.90
21508;DHT22;10915;54.352;9.074;2023-04-15T00:31:34;7.20;99.90
21508;DHT22;10915;54.352;9.074;2023-04-15T00:34:00;7.20;99.90
21508;DHT22;10915;54.352;9.074;2023-04-15T00:36:26;7.20;99.90
21508;DHT22;10915;54.352;9.074;2023-04-15T00:38:52;7.30;99.90
21508;DHT22;10915;54.352;9.074;2023-04-15T00:41:18;7.30;99.90
21508;DHT22;10915;54.352;9.074;2023-04-15T00:43:44;7.30;99.90
21508;DHT22;10915;54.352;9.074;2023-04-15T00:46:11;7.30;99.90
21508;DHT22;10915;54.352;9.074;2023-04-15T00:48:37;7.30;99.90
21508;DHT22;10915;54.352;9.074;2023-04-15T00:51:03;7.30;99.90
21508;DHT22;10915;54.352;9.074;2023-04-15T00:53:41;7.30;99.90
21508;DHT22;10915;54.352;9.074;2023-04-15T00:56:08;7.30;99.90
21508;DHT22;10915;54.352;9.074;2023-04-15T00:58:33;7.30;99.90
21508;DHT22;10915;54.352;9.074;2023-04-15T01:00:59;7.30;99.90
21508;DHT22;10915;54.352;9.074;2023-04-15T01:03:25;7.30;99.90
21508;DHT22;10915;54.352;9.074;2023-04-15T01:05:51;7.30;99.90
21508;DHT22;10915;54.352;9.074;2023-04-15T01:08:29;7.30;99.90
21508;DHT22;10915;54.352;9.074;2023-04-15T01:11:00;7.30;99.90
21508;DHT22;10915;54.352;9.074;2023-04-15T01:13:28;7.30;99.90
21508;DHT22;10915;54.352;9.074;2023-04-15T01:15:55;7.30;99.90
21508;DHT22;10915;54.352;9.074;2023-04-15T01:18:22;7.30;99.90
21508;DHT22;10915;54.352;9.074;2023-04-15T01:20:48;7.30;99.90
21508;DHT22;10915;54.352;9.074;2023-04-15T01:23:14;7.30;99.90
21508;DHT22;10915;54.352;9.074;2023-04-15T01:25:42;7.30;99.90
21508;DHT22;10915;54.352;9.074;2023-04-15T01:28:09;7.40;99.90
21508;DHT22;10915;54.352;9.074;2023-04-15T01:30:35;7.40;99.90
21508;DHT22;10915;54.352;9.074;2023-04-15T01:33:01;7.40;99.90
21508;DHT22;10915;54.352;9.074;2023-04-15T01:35:27;7.40;99.90
21508;DHT22;10915;54.352;9.074;2023-04-15T01:37:53;7.40;99.90
21508;DHT22;10915;54.352;9.074;2023-04-15T01:40:19;7.40;99.90
21508;DHT22;10915;54.352;9.074;2023-04-15T01:42:45;7.40;99.90
21508;DHT22;10915;54.352;9.074;2023-04-15T01:45:11;7.40;99.90
21508;DHT22;10915;54.352;9.074;2023-04-15T01:47:37;7.50;99.90
21508;DHT22;10915;54.352;9.074;2023-04-15T01:50:04;7.40;99.90
21508;DHT22;10915;54.352;9.074;2023-04-15T01:52:29;7.50;99.90
21508;DHT22;10915;54.352;9.074;2023-04-15T01:54:56;7.60;99.90
21508;DHT22;10915;54.352;9.074;2023-04-15T01:57:22;7.60;99.90
21508;DHT22;10915;54.352;9.074;2023-04-15T01:59:47;7.60;99.90
21508;DHT22;10915;54.352;9.074;2023-04-15T02:02:13;7.60;99.90
21508;DHT22;10915;54.352;9.074;2023-04-15T02:04:39;7.50;99.90
21508;DHT22;10915;54.352;9.074;2023-04-15T02:07:05;7.50;99.90
21508;DHT22;10915;54.352;9.074;2023-04-15T02:09:31;7.50;99.90
21508;DHT22;10915;54.352;9.074;2023-04-15T02:11:57;7.40;99.90
21508;DHT22;10915;54.352;9.074;2023-04-15T02:14:22;7.40;99.90
21508;DHT22;10915;54.352;9.074;2023-04-15T02:16:48;7.40;99.90
21508;DHT22;10915;54.352;9.074;2023-04-15T02:19:14;7.40;99.90
21508;DHT22;10915;54.352;9.074;2023-04-15T02:21:39;7.40;99.90
21508;DHT22;10915;54.352;9.074;2023-04-15T02:24:07;7.40;99.90
21508;DHT22;10915;54.352;9.074;2023-04-15T02:26:33;7.40;99.90
21508;DHT22;10915;54.352;9.074;2023-04-15T02:29:00;7.40;99.90
21508;DHT22;10915;54.352;9.074;2023-04-15T02:31:26;7.50;99.90
21508;DHT22;10915;54.352;9.074;2023-04-15T02:33:52;7.40;99.90
21508;DHT22;10915;54.352;9.074;2023-04-15T02:36:17;7.50;99.90
21508;DHT22;10915;54.352;9.074;2023-04-15T02:38:43;7.50;99.90
21508;DHT22;10915;54.352;9.074;2023-04-15T02:41:09;7.50;99.90
21508;DHT22;10915;54.352;9.074;2023-04-15T02:43:35;7.50;99.90
21508;DHT22;10915;54.352;9.074;2023-04-15T02:46:00;7.50;99.90
21508;DHT22;10915;54.352;9.074;2023-04-15T02:48:26;7.50;99.90
21508;DHT22;10915;54.352;9.074;2023-04-15T02:50:52;7.50;99.90
21508;DHT22;10915;54.352;9.074;2023-04-15T02:53:17;7.50;99.90
21508;DHT22;10915;54.352;9.074;2023-04-15T02:55:44;7.50;99.90
21508;DHT22;10915;54.352;9.074;2023-04-15T02:58:10;7.50;99.90
21508;DHT22;10915;54.352;9.074;2023-04-15T03:00:36;7.50;99.90
21508;DHT22;10915;54.352;9.074;2023-04-15T03:03:03;7.50;99.90
21508;DHT22;10915;54.352;9.074;2023-04-15T03:05:29;7.50;99.90
21508;DHT22;10915;54.352;9.074;2023-04-15T03:07:55;7.50;99.90
21508;DHT22;10915;54.352;9.074;2023-04-15T03:10:20;7.50;99.90
21508;DHT22;10915;54.352;9.074;2023-04-15T03:12:46;7.50;99.90
21508;DHT22;10915;54.352;9.074;2023-04-15T03:15:12;7.50;99.90
21508;DHT22;10915;54.352;9.074;2023-04-15T03:17:38;7.50;99.90
21508;DHT22;10915;54.352;9.074;2023-04-15T03:20:05;7.60;99.90
21508;DHT22;10915;54.352;9.074;2023-04-15T03:22:31;7.60;99.90
21508;DHT22;10915;54.352;9.074;2023-04-15T03:24:58;7.60;99.90
21508;DHT22;10915;54.352;9.074;2023-04-15T03:27:24;7.60;99.90
21508;DHT22;10915;54.352;9.074;2023-04-15T03:29:49;7.60;99.90
21508;DHT22;10915;54.352;9.074;2023-04-15T03:32:16;7.60;99.90
21508;DHT22;10915;54.352;9.074;2023-04-15T03:34:42;7.60;99.90
21508;DHT22;10915;54.352;9.074;2023-04-15T03:37:07;7.60;99.90
21508;DHT22;10915;54.352;9.074;2023-04-15T03:39:33;7.50;99.90
21508;DHT22;10915;54.352;9.074;2023-04-15T03:41:59;7.50;99.90
21508;DHT22;10915;54.352;9.074;2023-04-15T03:44:26;7.50;99.90
21508;DHT22;10915;54.352;9.074;2023-04-15T03:46:52;7.50;99.90
21508;DHT22;10915;54.352;9.074;2023-04-15T03:49:17;7.50;99.90
21508;DHT22;10915;54.352;9.074;2023-04-15T03:51:44;7.50;99.90
21508;DHT22;10915;54.352;9.074;2023-04-15T03:54:09;7.50;99.90
21508;DHT22;10915;54.352;9.074;2023-04-15T03:56:36;7.50;99.90
21508;DHT22;10915;54.352;9.074;2023-04-15T03:59:01;7.50;99.90
21508;DHT22;10915;54.352;9.074;2023-04-15T04:01:27;7.50;99.90
21508;DHT22;10915;54.352;9.074;2023-04-15T04:03:52;7.50;99.90
21508;DHT22;10915;54.352;9.074;2023-04-15T04:06:18;7.50;99.90
21508;DHT22;10915;54.352;9.074;2023-04-15T04:08:44;7.50;99.90
21508;DHT22;10915;54.352;9.074;2023-04-15T04:11:10;7.50;99.90
21508;DHT22;10915;54.352;9.074;2023-04-15T04:13:35;7.50;99.90
21508;DHT22;10915;54.352;9.074;2023-04-15T04:16:01;7.60;99.90
21508;DHT22;10915;54.352;9.074;2023-04-15T04:18:28;7.50;99.90
21508;DHT22;10915;54.352;9.074;2023-04-15T04:20:54;7.50;99.90
21508;DHT22;10915;54.352;9.074;2023-04-15T04:23:19;7.50;99.90
21508;DHT22;10915;54.352;9.074;2023-04-15T04:25:45;7.50;99.90
21508;DHT22;10915;54.352;9.074;2023-04-15T04:28:11;7.60;99.90
21508;DHT22;10915;54.352;9.074;2023-04-15T04:30:36;7.60;99.90
21508;DHT22;10915;54.352;9.074;2023-04-15T04:33:02;7.60;99.90
21508;DHT22;10915;54.352;9.074;2023-04-15T04:35:28;7.50;99.90
21508;DHT22;10915;54.352;9.074;2023-04-15T04:37:53;7.60;99.90
21508;DHT22;10915;54.352;9.074;2023-04-15T04:40:19;7.60;99.90
21508;DHT22;10915;54.352;9.074;2023-04-15T04:42:45;7.60;99.90
21508;DHT22;10915;54.352;9.074;2023-04-15T04:45:11;7.60;99.90
21508;DHT22;10915;54.352;9.074;2023-04-15T04:47:36;7.60;99.90
21508;DHT22;10915;54.352;9.074;2023-04-15T04:50:02;7.60;99.90
21508;DHT22;10915;54.352;9.074;2023-04-15T04:52:28;7.60;99.90
21508;DHT22;10915;54.352;9.074;2023-04-15T04:54:53;7.70;99.90
21508;DHT22;10915;54.352;9.074;2023-04-15T04:57:19;7.60;99.90
21508;DHT22;10915;54.352;9.074;2023-04-15T04:59:45;7.60;99.90
21508;DHT22;10915;54.352;9.074;2023-04-15T05:02:10;7.60;99.90
21508;DHT22;10915;54.352;9.074;2023-04-15T05:04:36;7.60;99.90
21508;DHT22;10915;54.352;9.074;2023-04-15T05:07:02;7.60;99.90
21508;DHT22;10915;54.352;9.074;2023-04-15T05:09:27;7.60;99.90
21508;DHT22;10915;54.352;9.074;2023-04-15T05:11:55;7.60;99.90
21508;DHT22;10915;54.352;9.074;2023-04-15T05:14:21;7.60;99.90
21508;DHT22;10915;54.352;9.074;2023-04-15T05:16:47;7.60;99.90
21508;DHT22;10915;54.352;9.074;2023-04-15T05:19:12;7.60;99.90
21508;DHT22;10915;54.352;9.074;2023-04-15T05:21:38;7.60;99.90
21508;DHT22;10915;54.352;9.074;2023-04-15T05:24:04;7.70;99.90
21508;DHT22;10915;54.352;9.074;2023-04-15T05:26:29;7.70;99.90
21508;DHT22;10915;54.352;9.074;2023-04-15T05:28:55;7.70;99.90
21508;DHT22;10915;54.352;9.074;2023-04-15T05:31:21;7.70;99.90
21508;DHT22;10915;54.352;9.074;2023-04-15T05:33:47;7.70;99.90
21508;DHT22;10915;54.352;9.074;2023-04-15T05:36:12;7.70;99.90
21508;DHT22;10915;54.352;9.074;2023-04-15T05:38:38;7.70;99.90
21508;DHT22;10915;54.352;9.074;2023-04-15T05:41:04;7.80;99.90
21508;DHT22;10915;54.352;9.074;2023-04-15T05:43:29;7.80;99.90
21508;DHT22;10915;54.352;9.074;2023-04-15T05:45:56;7.80;99.90
21508;DHT22;10915;54.352;9.074;2023-04-15T05:48:22;7.70;99.90
21508;DHT22;10915;54.352;9.074;2023-04-15T05:50:47;7.80;99.90
21508;DHT22;10915;54.352;9.074;2023-04-15T05:53:13;7.80;99.90
21508;DHT22;10915;54.352;9.074;2023-04-15T05:55:39;7.90;99.90
21508;DHT22;10915;54.352;9.074;2023-04-15T05:58:05;7.90;99.90
21508;DHT22;10915;54.352;9.074;2023-04-15T06:00:31;7.80;99.90
21508;DHT22;10915;54.352;9.074;2023-04-15T06:02:56;7.80;99.90
21508;DHT22;10915;54.352;9.074;2023-04-15T06:05:23;7.80;99.90
21508;DHT22;10915;54.352;9.074;2023-04-15T06:07:49;7.80;99.90
21508;DHT22;10915;54.352;9.074;2023-04-15T06:10:15;7.80;99.90
21508;DHT22;10915;54.352;9.074;2023-04-15T06:12:41;7.80;99.90
21508;DHT22;10915;54.352;9.074;2023-04-15T06:15:07;7.90;99.90
21508;DHT22;10915;54.352;9.074;2023-04-15T06:17:35;7.90;99.90
21508;DHT22;10915;54.352;9.074;2023-04-15T06:20:01;7.90;99.90
21508;DHT22;10915;54.352;9.074;2023-04-15T06:22:26;8.00;99.90
21508;DHT22;10915;54.352;9.074;2023-04-15T06:24:52;8.00;99.90
21508;DHT22;10915;54.352;9.074;2023-04-15T06:27:18;8.10;99.90
21508;DHT22;10915;54.352;9.074;2023-04-15T06:29:44;8.10;99.90
21508;DHT22;10915;54.352;9.074;2023-04-15T06:32:10;8.20;99.90
21508;DHT22;10915;54.352;9.074;2023-04-15T06:34:36;8.20;99.90
21508;DHT22;10915;54.352;9.074;2023-04-15T06:37:02;8.20;99.90
21508;DHT22;10915;54.352;9.074;2023-04-15T06:39:27;8.30;99.90
21508;DHT22;10915;54.352;9.074;2023-04-15T06:41:53;8.20;99.90
21508;DHT22;10915;54.352;9.074;2023-04-15T06:44:19;8.30;99.90
21508;DHT22;10915;54.352;9.074;2023-04-15T06:46:45;8.30;99.90
21508;DHT22;10915;54.352;9.074;2023-04-15T06:49:10;8.30;99.90
21508;DHT22;10915;54.352;9.074;2023-04-15T06:51:36;8.40;99.90
21508;DHT22;10915;54.352;9.074;2023-04-15T06:54:03;8.30;99.90
21508;DHT22;10915;54.352;9.074;2023-04-15T06:56:31;8.30;99.90
21508;DHT22;10915;54.352;9.074;2023-04-15T06:58:56;8.30;99.90
21508;DHT22;10915;54.352;9.074;2023-04-15T07:01:22;8.30;99.90
21508;DHT22;10915;54.352;9.074;2023-04-15T07:03:48;8.40;99.90
21508;DHT22;10915;54.352;9.074;2023-04-15T07:06:13;8.40;99.90
21508;DHT22;10915;54.352;9.074;2023-04-15T07:08:39;8.50;99.90
21508;DHT22;10915;54.352;9.074;2023-04-15T07:11:05;8.40;99.90
21508;DHT22;10915;54.352;9.074;2023-04-15T07:13:31;8.40;99.90
21508;DHT22;10915;54.352;9.074;2023-04-15T07:15:57;8.40;99.90
21508;DHT22;10915;54.352;9.074;2023-04-15T07:18:23;8.40;99.90
21508;DHT22;10915;54.352;9.074;2023-04-15T07:20:48;8.40;99.90
21508;DHT22;10915;54.352;9.074;2023-04-15T07:23:14;8.50;99.90
21508;DHT22;10915;54.352;9.074;2023-04-15T07:25:40;8.40;99.90
21508;DHT22;10915;54.352;9.074;2023-04-15T07:28:06;8.50;99.90
21508;DHT22;10915;54.352;9.074;2023-04-15T07:30:31;8.50;99.90
21508;DHT22;10915;54.352;9.074;2023-04-15T07:32:57;8.50;99.90
21508;DHT22;10915;54.352;9.074;2023-04-15T07:35:23;8.60;99.90
21508;DHT22;10915;54.352;9.074;2023-04-15T07:37:50;8.60;99.90
21508;DHT22;10915;54.352;9.074;2023-04-15T07:40:16;8.60;99.90
21508;DHT22;10915;54.352;9.074;2023-04-15T07:42:42;8.60;99.90
21508;DHT22;10915;54.352;9.074;2023-04-15T07:45:09;8.60;99.90
21508;DHT22;10915;54.352;9.074;2023-04-15T07:47:34;8.70;99.90
21508;DHT22;10915;54.352;9.074;2023-04-15T07:50:01;8.70;99.90
21508;DHT22;10915;54.352;9.074;2023-04-15T07:52:27;8.70;99.90
21508;DHT22;10915;54.352;9.074;2023-04-15T07:54:52;8.70;99.90
21508;DHT22;10915;54.352;9.074;2023-04-15T07:57:18;8.70;99.90
21508;DHT22;10915;54.352;9.074;2023-04-15T07:59:44;8.60;99.90
21508;DHT22;10915;54.352;9.074;2023-04-15T08:02:10;8.70;99.90
21508;DHT22;10915;54.352;9.074;2023-04-15T08:04:36;8.60;99.90
21508;DHT22;10915;54.352;9.074;2023-04-15T08:07:02;8.70;99.90
21508;DHT22;10915;54.352;9.074;2023-04-15T08:09:28;8.60;99.90
21508;DHT22;10915;54.352;9.074;2023-04-15T08:11:54;8.60;99.90
21508;DHT22;10915;54.352;9.074;2023-04-15T08:14:21;8.60;99.90
21508;DHT22;10915;54.352;9.074;2023-04-15T08:16:47;8.60;99.90
21508;DHT22;10915;54.352;9.074;2023-04-15T08:19:12;8.70;99.90
21508;DHT22;10915;54.352;9.074;2023-04-15T08:21:38;8.70;99.90
21508;DHT22;10915;54.352;9.074;2023-04-15T08:24:05;8.70;99.90
21508;DHT22;10915;54.352;9.074;2023-04-15T08:26:31;8.80;99.90
21508;DHT22;10915;54.352;9.074;2023-04-15T08:28:57;8.70;99.90
21508;DHT22;10915;54.352;9.074;2023-04-15T08:31:26;8.80;99.90
21508;DHT22;10915;54.352;9.074;2023-04-15T08:33:53;8.80;99.90
21508;DHT22;10915;54.352;9.074;2023-04-15T08:36:21;8.80;99.90
21508;DHT22;10915;54.352;9.074;2023-04-15T08:38:46;8.80;99.90
21508;DHT22;10915;54.352;9.074;2023-04-15T08:41:22;8.80;99.90
21508;DHT22;10915;54.352;9.074;2023-04-15T08:44:06;8.80;99.90
21508;DHT22;10915;54.352;9.074;2023-04-15T08:46:32;8.90;99.90
21508;DHT22;10915;54.352;9.074;2023-04-15T08:48:59;8.90;99.90
21508;DHT22;10915;54.352;9.074;2023-04-15T08:51:27;8.90;99.90
21508;DHT22;10915;54.352;9.074;2023-04-15T08:53:54;9.00;99.90
21508;DHT22;10915;54.352;9.074;2023-04-15T08:56:25;9.00;99.90
21508;DHT22;10915;54.352;9.074;2023-04-15T08:58:53;9.00;99.90
21508;DHT22;10915;54.352;9.074;2023-04-15T09:01:19;9.00;99.90
21508;DHT22;10915;54.352;9.074;2023-04-15T09:03:47;9.10;99.90
21508;DHT22;10915;54.352;9.074;2023-04-15T09:06:16;9.00;99.90
21508;DHT22;10915;54.352;9.074;2023-04-15T09:08:41;9.00;99.90
21508;DHT22;10915;54.352;9.074;2023-04-15T09:11:07;9.10;99.90
21508;DHT22;10915;54.352;9.074;2023-04-15T09:13:32;9.10;99.90
21508;DHT22;10915;54.352;9.074;2023-04-15T09:16:01;9.20;99.90
21508;DHT22;10915;54.352;9.074;2023-04-15T09:18:29;9.30;99.90
21508;DHT22;10915;54.352;9.074;2023-04-15T09:20:55;9.20;99.90
21508;DHT22;10915;54.352;9.074;2023-04-15T09:23:29;9.20;99.90
21508;DHT22;10915;54.352;9.074;2023-04-15T09:25:56;9.20;99.90
21508;DHT22;10915;54.352;9.074;2023-04-15T09:28:25;9.20;99.90
21508;DHT22;10915;54.352;9.074;2023-04-15T09:30:54;9.20;99.90
21508;DHT22;10915;54.352;9.074;2023-04-15T09:33:20;9.20;99.90
21508;DHT22;10915;54.352;9.074;2023-04-15T09:36:03;9.30;99.90
21508;DHT22;10915;54.352;9.074;2023-04-15T09:38:30;9.30;99.90
21508;DHT22;10915;54.352;9.074;2023-04-15T09:40:57;9.30;99.90
21508;DHT22;10915;54.352;9.074;2023-04-15T09:43:36;9.40;99.90
21508;DHT22;10915;54.352;9.074;2023-04-15T09:46:03;9.40;99.90
21508;DHT22;10915;54.352;9.074;2023-04-15T09:48:29;9.40;99.90
21508;DHT22;10915;54.352;9.074;2023-04-15T09:50:57;9.30;99.90
21508;DHT22;10915;54.352;9.074;2023-04-15T09:53:24;9.40;99.90
21508;DHT22;10915;54.352;9.074;2023-04-15T09:55:55;9.50;99.90
21508;DHT22;10915;54.352;9.074;2023-04-15T10:00:49;9.60;99.90
21508;DHT22;10915;54.352;9.074;2023-04-15T10:05:45;9.50;99.90
21508;DHT22;10915;54.352;9.074;2023-04-15T10:08:12;9.50;99.90
21508;DHT22;10915;54.352;9.074;2023-04-15T10:10:38;9.50;99.90
21508;DHT22;10915;54.352;9.074;2023-04-15T10:13:05;9.50;99.90
21508;DHT22;10915;54.352;9.074;2023-04-15T10:15:31;9.50;99.90
21508;DHT22;10915;54.352;9.074;2023-04-15T10:17:59;9.60;99.90
21508;DHT22;10915;54.352;9.074;2023-04-15T10:20:25;9.60;99.90
21508;DHT22;10915;54.352;9.074;2023-04-15T10:22:52;9.60;99.90
21508;DHT22;10915;54.352;9.074;2023-04-15T10:25:18;9.60;99.90
21508;DHT22;10915;54.352;9.074;2023-04-15T10:27:44;9.60;99.90
21508;DHT22;10915;54.352;9.074;2023-04-15T10:30:11;9.70;99.90
21508;DHT22;10915;54.352;9.074;2023-04-15T10:32:37;9.80;99.90
21508;DHT22;10915;54.352;9.074;2023-04-15T10:35:04;9.80;99.90
21508;DHT22;10915;54.352;9.074;2023-04-15T10:37:35;9.90;99.90
21508;DHT22;10915;54.352;9.074;2023-04-15T10:40:24;9.90;99.90
21508;DHT22;10915;54.352;9.074;2023-04-15T10:42:52;10.10;99.90
21508;DHT22;10915;54.352;9.074;2023-04-15T10:45:18;10.20;99.90
21508;DHT22;10915;54.352;9.074;2023-04-15T10:47:44;10.30;99.90
21508;DHT22;10915;54.352;9.074;2023-04-15T10:50:10;10.30;99.90
21508;DHT22;10915;54.352;9.074;2023-04-15T10:52:39;10.50;99.90
21508;DHT22;10915;54.352;9.074;2023-04-15T10:55:13;10.50;99.90
21508;DHT22;10915;54.352;9.074;2023-04-15T10:57:42;10.60;99.90
21508;DHT22;10915;54.352;9.074;2023-04-15T11:00:13;10.80;99.90
21508;DHT22;10915;54.352;9.074;2023-04-15T11:03:13;10.80;99.90
21508;DHT22;10915;54.352;9.074;2023-04-15T11:08:04;10.80;99.90
21508;DHT22;10915;54.352;9.074;2023-04-15T11:18:13;11.30;99.90
21508;DHT22;10915;54.352;9.074;2023-04-15T11:20:42;11.40;99.90
21508;DHT22;10915;54.352;9.074;2023-04-15T11:23:09;11.60;99.90
21508;DHT22;10915;54.352;9.074;2023-04-15T11:25:35;11.50;99.90
21508;DHT22;10915;54.352;9.074;2023-04-15T11:28:04;11.80;99.90
21508;DHT22;10915;54.352;9.074;2023-04-15T11:30:32;12.00;99.90
21508;DHT22;10915;54.352;9.074;2023-04-15T11:33:00;12.10;99.90
21508;DHT22;10915;54.352;9.074;2023-04-15T11:35:26;12.20;99.90
21508;DHT22;10915;54.352;9.074;2023-04-15T11:37:53;12.30;99.90
21508;DHT22;10915;54.352;9.074;2023-04-15T11:40:25;12.70;99.90
21508;DHT22;10915;54.352;9.074;2023-04-15T11:43:11;12.30;99.90
21508;DHT22;10915;54.352;9.074;2023-04-15T11:45:54;12.60;99.90
21508;DHT22;10915;54.352;9.074;2023-04-15T11:48:34;12.90;99.90
21508;DHT22;10915;54.352;9.074;2023-04-15T11:51:06;12.90;99.90
21508;DHT22;10915;54.352;9.074;2023-04-15T11:53:47;13.10;99.90
21508;DHT22;10915;54.352;9.074;2023-04-15T11:56:21;13.10;99.90
21508;DHT22;10915;54.352;9.074;2023-04-15T11:58:48;13.30;99.90
21508;DHT22;10915;54.352;9.074;2023-04-15T12:01:16;13.50;99.90
21508;DHT22;10915;54.352;9.074;2023-04-15T12:03:44;13.70;99.90
21508;DHT22;10915;54.352;9.074;2023-04-15T12:14:26;13.50;99.90
21508;DHT22;10915;54.352;9.074;2023-04-15T12:17:00;13.30;99.90
21508;DHT22;10915;54.352;9.074;2023-04-15T12:19:37;13.10;99.90
21508;DHT22;10915;54.352;9.074;2023-04-15T12:22:05;13.20;99.90
21508;DHT22;10915;54.352;9.074;2023-04-15T12:24:34;13.50;99.90
21508;DHT22;10915;54.352;9.074;2023-04-15T12:27:08;13.70;99.90
21508;DHT22;10915;54.352;9.074;2023-04-15T12:29:35;14.00;99.90
21508;DHT22;10915;54.352;9.074;2023-04-15T12:34:36;13.90;99.90
21508;DHT22;10915;54.352;9.074;2023-04-15T12:37:05;13.70;99.90
21508;DHT22;10915;54.352;9.074;2023-04-15T12:39:35;13.70;99.90
21508;DHT22;10915;54.352;9.074;2023-04-15T12:42:03;14.00;99.90
21508;DHT22;10915;54.352;9.074;2023-04-15T12:44:29;13.90;99.90
21508;DHT22;10915;54.352;9.074;2023-04-15T12:46:55;13.70;99.90
21508;DHT22;10915;54.352;9.074;2023-04-15T12:49:22;14.10;99.90
21508;DHT22;10915;54.352;9.074;2023-04-15T12:51:48;14.30;99.90
21508;DHT22;10915;54.352;9.074;2023-04-15T12:54:15;14.50;99.90
21508;DHT22;10915;54.352;9.074;2023-04-15T12:56:41;14.60;99.90
21508;DHT22;10915;54.352;9.074;2023-04-15T12:59:07;14.20;99.90
21508;DHT22;10915;54.352;9.074;2023-04-15T13:01:33;14.10;99.90
21508;DHT22;10915;54.352;9.074;2023-04-15T13:03:58;14.10;99.90
21508;DHT22;10915;54.352;9.074;2023-04-15T13:06:24;14.50;99.90
21508;DHT22;10915;54.352;9.074;2023-04-15T13:08:50;14.80;99.90
21508;DHT22;10915;54.352;9.074;2023-04-15T13:11:16;14.90;99.90
21508;DHT22;10915;54.352;9.074;2023-04-15T13:13:42;14.80;99.90
21508;DHT22;10915;54.352;9.074;2023-04-15T13:16:07;14.80;99.90
21508;DHT22;10915;54.352;9.074;2023-04-15T13:18:34;14.70;99.90
21508;DHT22;10915;54.352;9.074;2023-04-15T13:21:00;14.40;99.90
21508;DHT22;10915;54.352;9.074;2023-04-15T13:23:26;14.30;99.90
21508;DHT22;10915;54.352;9.074;2023-04-15T13:25:52;14.20;99.90
21508;DHT22;10915;54.352;9.074;2023-04-15T13:28:17;14.20;99.90
21508;DHT22;10915;54.352;9.074;2023-04-15T13:30:43;14.10;99.90
21508;DHT22;10915;54.352;9.074;2023-04-15T13:33:10;14.10;99.90
21508;DHT22;10915;54.352;9.074;2023-04-15T13:35:36;14.40;99.90
21508;DHT22;10915;54.352;9.074;2023-04-15T13:38:01;14.50;99.90
21508;DHT22;10915;54.352;9.074;2023-04-15T13:40:27;14.50;99.90
21508;DHT22;10915;54.352;9.074;2023-04-15T13:42:52;14.50;99.90
21508;DHT22;10915;54.352;9.074;2023-04-15T13:45:18;14.40;99.90
21508;DHT22;10915;54.352;9.074;2023-04-15T13:47:44;14.00;99.90
21508;DHT22;10915;54.352;9.074;2023-04-15T13:50:10;13.80;99.90
21508;DHT22;10915;54.352;9.074;2023-04-15T13:52:35;13.80;99.90
21508;DHT22;10915;54.352;9.074;2023-04-15T13:55:02;13.80;99.90
21508;DHT22;10915;54.352;9.074;2023-04-15T13:57:28;13.80;99.90
21508;DHT22;10915;54.352;9.074;2023-04-15T13:59:54;13.90;99.90
21508;DHT22;10915;54.352;9.074;2023-04-15T14:02:20;14.00;99.90
21508;DHT22;10915;54.352;9.074;2023-04-15T14:04:47;14.50;99.90
21508;DHT22;10915;54.352;9.074;2023-04-15T14:07:13;14.70;99.90
21508;DHT22;10915;54.352;9.074;2023-04-15T14:09:38;14.80;99.90
21508;DHT22;10915;54.352;9.074;2023-04-15T14:12:05;14.70;99.90
21508;DHT22;10915;54.352;9.074;2023-04-15T14:14:31;14.40;99.90
21508;DHT22;10915;54.352;9.074;2023-04-15T14:16:59;14.20;99.90
21508;DHT22;10915;54.352;9.074;2023-04-15T14:19:24;14.40;99.90
21508;DHT22;10915;54.352;9.074;2023-04-15T14:21:50;14.60;99.90
21508;DHT22;10915;54.352;9.074;2023-04-15T14:24:16;14.70;99.90
21508;DHT22;10915;54.352;9.074;2023-04-15T14:26:42;14.60;99.90
21508;DHT22;10915;54.352;9.074;2023-04-15T14:29:08;14.40;99.90
21508;DHT22;10915;54.352;9.074;2023-04-15T14:31:34;14.30;99.90
21508;DHT22;10915;54.352;9.074;2023-04-15T14:34:00;14.30;99.90
21508;DHT22;10915;54.352;9.074;2023-04-15T14:36:26;14.30;99.90
21508;DHT22;10915;54.352;9.074;2023-04-15T14:38:52;14.20;99.90
21508;DHT22;10915;54.352;9.074;2023-04-15T14:41:17;14.00;99.90
21508;DHT22;10915;54.352;9.074;2023-04-15T14:43:43;14.00;99.90
21508;DHT22;10915;54.352;9.074;2023-04-15T14:46:09;14.10;99.90
21508;DHT22;10915;54.352;9.074;2023-04-15T14:48:35;14.00;99.90
21508;DHT22;10915;54.352;9.074;2023-04-15T14:51:01;14.40;99.90
21508;DHT22;10915;54.352;9.074;2023-04-15T14:53:27;14.70;99.90
21508;DHT22;10915;54.352;9.074;2023-04-15T14:55:52;14.70;99.90
21508;DHT22;10915;54.352;9.074;2023-04-15T14:58:18;14.70;99.90
21508;DHT22;10915;54.352;9.074;2023-04-15T15:00:44;14.80;99.90
21508;DHT22;10915;54.352;9.074;2023-04-15T15:03:10;14.80;99.90
21508;DHT22;10915;54.352;9.074;2023-04-15T15:05:43;14.60;99.90
21508;DHT22;10915;54.352;9.074;2023-04-15T15:08:10;14.50;99.90
21508;DHT22;10915;54.352;9.074;2023-04-15T15:10:36;14.50;99.90
21508;DHT22;10915;54.352;9.074;2023-04-15T15:13:07;14.20;99.90
21508;DHT22;10915;54.352;9.074;2023-04-15T15:15:34;14.10;99.90
21508;DHT22;10915;54.352;9.074;2023-04-15T15:18:00;14.00;99.90
21508;DHT22;10915;54.352;9.074;2023-04-15T15:20:26;14.10;99.90
21508;DHT22;10915;54.352;9.074;2023-04-15T15:22:52;14.30;99.90
21508;DHT22;10915;54.352;9.074;2023-04-15T15:25:17;14.50;99.90
21508;DHT22;10915;54.352;9.074;2023-04-15T15:27:43;14.40;99.90
21508;DHT22;10915;54.352;9.074;2023-04-15T15:30:10;14.30;99.90
21508;DHT22;10915;54.352;9.074;2023-04-15T15:32:38;14.30;99.90
21508;DHT22;10915;54.352;9.074;2023-04-15T15:35:04;14.20;99.90
21508;DHT22;10915;54.352;9.074;2023-04-15T15:37:30;14.20;99.90
21508;DHT22;10915;54.352;9.074;2023-04-15T15:39:55;14.10;99.90
21508;DHT22;10915;54.352;9.074;2023-04-15T15:42:21;14.10;99.90
21508;DHT22;10915;54.352;9.074;2023-04-15T15:44:48;14.10;99.90
21508;DHT22;10915;54.352;9.074;2023-04-15T15:47:14;14.10;99.90
21508;DHT22;10915;54.352;9.074;2023-04-15T15:49:40;14.10;99.90
21508;DHT22;10915;54.352;9.074;2023-04-15T15:52:06;14.20;99.90
21508;DHT22;10915;54.352;9.074;2023-04-15T15:54:31;14.10;99.90
21508;DHT22;10915;54.352;9.074;2023-04-15T15:56:57;14.10;99.90
21508;DHT22;10915;54.352;9.074;2023-04-15T15:59:23;14.10;99.90
21508;DHT22;10915;54.352;9.074;2023-04-15T16:01:50;14.10;99.90
21508;DHT22;10915;54.352;9.074;2023-04-15T16:04:15;14.10;99.90